sensor_id;sensor_type;location;lat;lon;timestamp;pressure;altitude;pressure_sealevel;temperature;humidity
55418;BME280;41287;47.554;7.844;2022-11-20T00:01:07;97658.72;;;17.93;63.87
55418;BME280;41287;47.554;7.844;2022-11-20T00:03:33;97664.94;;;17.93;63.92
55418;BME280;41287;47.554;7.844;2022-11-20T00:06:07;97668.75;;;17.92;64.13
55418;BME280;41287;47.554;7.844;2022-11-20T00:08:34;97660.31;;;17.94;64.05
55418;BME280;41287;47.554;7.844;2022-11-20T00:11:06;97662.56;;;17.92;63.97
55418;BME280;41287;47.554;7.844;2022-11-20T00:13:32;97666.50;;;17.94;63.93
55418;BME280;41287;47.554;7.844;2022-11-20T00:16:00;97677.34;;;17.94;63.86
55418;BME280;41287;47.554;7.844;2022-11-20T00:18:26;97664.94;;;17.93;64.03
55418;BME280;41287;47.554;7.844;2022-11-20T00:20:52;97669.56;;;17.93;64.04
55418;BME280;41287;47.554;7.844;2022-11-20T00:23:17;97673.41;;;17.92;64.02
55418;BME280;41287;47.554;7.844;2022-11-20T00:25:43;97675.78;;;17.93;64.03
55418;BME280;41287;47.554;7.844;2022-11-20T00:28:08;97672.28;;;17.93;64.12
55418;BME280;41287;47.554;7.844;2022-11-20T00:30:33;97676.91;;;17.92;64.10
55418;BME280;41287;47.554;7.844;2022-11-20T00:32:59;97679.59;;;17.92;63.78
55418;BME280;41287;47.554;7.844;2022-11-20T00:35:26;97679.59;;;17.92;64.05
55418;BME280;41287;47.554;7.844;2022-11-20T00:37:53;97674.97;;;17.93;63.94
55418;BME280;41287;47.554;7.844;2022-11-20T00:40:20;97677.69;;;17.93;64.10
55418;BME280;41287;47.554;7.844;2022-11-20T00:42:46;97677.69;;;17.93;64.12
55418;BME280;41287;47.554;7.844;2022-11-20T00:45:11;97677.69;;;17.93;63.96
55418;BME280;41287;47.554;7.844;2022-11-20T00:47:36;97676.09;;;17.92;63.83
55418;BME280;41287;47.554;7.844;2022-11-20T00:50:02;97680.41;;;17.93;64.08
55418;BME280;41287;47.554;7.844;2022-11-20T00:52:27;97678.03;;;17.91;63.94
55418;BME280;41287;47.554;7.844;2022-11-20T00:54:52;97677.69;;;17.93;64.18
55418;BME280;41287;47.554;7.844;2022-11-20T00:57:18;97678.81;;;17.92;64.12
55418;BME280;41287;47.554;7.844;2022-11-20T00:59:43;97680.72;;;17.91;64.11
55418;BME280;41287;47.554;7.844;2022-11-20T01:02:09;97683.09;;;17.93;63.89
55418;BME280;41287;47.554;7.844;2022-11-20T01:04:34;97678.03;;;17.91;64.12
55418;BME280;41287;47.554;7.844;2022-11-20T01:06:59;97681.53;;;17.92;63.96
55418;BME280;41287;47.554;7.844;2022-11-20T01:09:24;97681.53;;;17.92;64.02
55418;BME280;41287;47.554;7.844;2022-11-20T01:11:50;97681.84;;;17.90;64.09
55418;BME280;41287;47.554;7.844;2022-11-20T01:14:18;97688.53;;;17.93;64.00
55418;BME280;41287;47.554;7.844;2022-11-20T01:16:49;97689.66;;;17.92;63.96
55418;BME280;41287;47.554;7.844;2022-11-20T01:19:18;97675.31;;;17.91;64.04
55418;BME280;41287;47.554;7.844;2022-11-20T01:21:45;97685.34;;;17.91;64.07
55418;BME280;41287;47.554;7.844;2022-11-20T01:24:12;97688.88;;;17.91;63.98
55418;BME280;41287;47.554;7.844;2022-11-20T01:26:39;97688.88;;;17.91;64.10
55418;BME280;41287;47.554;7.844;2022-11-20T01:29:07;97698.56;;;17.92;63.96
55418;BME280;41287;47.554;7.844;2022-11-20T01:31:34;97702.41;;;17.91;64.03
55418;BME280;41287;47.554;7.844;2022-11-20T01:34:06;97700.81;;;17.90;63.83
55418;BME280;41287;47.554;7.844;2022-11-20T01:36:34;97705.91;;;17.92;64.11
55418;BME280;41287;47.554;7.844;2022-11-20T01:39:03;97701.28;;;17.92;64.12
55418;BME280;41287;47.554;7.844;2022-11-20T01:41:30;97703.22;;;17.92;64.06
55418;BME280;41287;47.554;7.844;2022-11-20T01:44:17;97698.91;;;17.91;63.88
55418;BME280;41287;47.554;7.844;2022-11-20T01:47:00;97705.47;;;17.90;64.17
55418;BME280;41287;47.554;7.844;2022-11-20T01:49:36;97706.25;;;17.90;64.02
55418;BME280;41287;47.554;7.844;2022-11-20T01:52:12;97704.34;;;17.91;63.89
55418;BME280;41287;47.554;7.844;2022-11-20T01:54:56;97700.38;;;17.88;63.98
55418;BME280;41287;47.554;7.844;2022-11-20T01:57:25;97707.03;;;17.91;63.87
55418;BME280;41287;47.554;7.844;2022-11-20T02:00:14;97706.94;;;17.87;64.15
55418;BME280;41287;47.554;7.844;2022-11-20T02:02:47;97716.28;;;17.90;64.01
55418;BME280;41287;47.554;7.844;2022-11-20T02:07:43;97708.97;;;17.90;63.89
55418;BME280;41287;47.554;7.844;2022-11-20T02:10:08;97709.75;;;17.91;63.86
55418;BME280;41287;47.554;7.844;2022-11-20T02:12:34;97709.75;;;17.91;63.96
55418;BME280;41287;47.554;7.844;2022-11-20T02:15:17;97708.97;;;17.90;63.95
55418;BME280;41287;47.554;7.844;2022-11-20T02:17:45;97708.16;;;17.90;64.08
55418;BME280;41287;47.554;7.844;2022-11-20T02:20:11;97708.50;;;17.88;63.94
55418;BME280;41287;47.554;7.844;2022-11-20T02:23:03;97700.72;;;17.87;64.04
55418;BME280;41287;47.554;7.844;2022-11-20T02:25:30;97700.03;;;17.90;64.12
55418;BME280;41287;47.554;7.844;2022-11-20T02:27:57;97702.75;;;17.90;63.91
55418;BME280;41287;47.554;7.844;2022-11-20T02:30:23;97698.44;;;17.89;64.01
55418;BME280;41287;47.554;7.844;2022-11-20T02:32:48;97696.19;;;17.91;64.05
55418;BME280;41287;47.554;7.844;2022-11-20T02:37:49;97699.25;;;17.89;64.09
55418;BME280;41287;47.554;7.844;2022-11-20T02:40:15;97700.03;;;17.90;64.17
55418;BME280;41287;47.554;7.844;2022-11-20T02:42:42;97699.25;;;17.89;64.00
55418;BME280;41287;47.554;7.844;2022-11-20T02:45:12;97696.91;;;17.88;63.90
55418;BME280;41287;47.554;7.844;2022-11-20T02:47:38;97699.25;;;17.89;64.22
55418;BME280;41287;47.554;7.844;2022-11-20T02:50:04;97705.47;;;17.90;64.05
55418;BME280;41287;47.554;7.844;2022-11-20T02:52:30;97701.94;;;17.89;64.06
55418;BME280;41287;47.554;7.844;2022-11-20T02:54:55;97704.66;;;17.89;63.86
55418;BME280;41287;47.554;7.844;2022-11-20T02:57:21;97700.81;;;17.90;63.98
55418;BME280;41287;47.554;7.844;2022-11-20T02:59:46;97700.38;;;17.88;63.99
55418;BME280;41287;47.554;7.844;2022-11-20T03:02:13;97695.75;;;17.89;64.09
55418;BME280;41287;47.554;7.844;2022-11-20T03:04:39;97696.53;;;17.89;64.15
55418;BME280;41287;47.554;7.844;2022-11-20T03:07:04;97692.22;;;17.88;63.92
55418;BME280;41287;47.554;7.844;2022-11-20T03:09:29;97695.75;;;17.89;64.01
55418;BME280;41287;47.554;7.844;2022-11-20T03:11:56;97702.75;;;17.90;64.18
55418;BME280;41287;47.554;7.844;2022-11-20T03:14:23;97703.53;;;17.90;64.05
55418;BME280;41287;47.554;7.844;2022-11-20T03:16:49;97697.66;;;17.88;64.07
55418;BME280;41287;47.554;7.844;2022-11-20T03:19:14;97710.44;;;17.88;64.04
55418;BME280;41287;47.554;7.844;2022-11-20T03:21:39;97703.06;;;17.88;63.93
55418;BME280;41287;47.554;7.844;2022-11-20T03:24:05;97702.75;;;17.90;63.96
55418;BME280;41287;47.554;7.844;2022-11-20T03:26:31;97701.94;;;17.89;64.06
55418;BME280;41287;47.554;7.844;2022-11-20T03:28:59;97705.03;;;17.88;64.06
55418;BME280;41287;47.554;7.844;2022-11-20T03:31:30;97705.03;;;17.88;63.99
55418;BME280;41287;47.554;7.844;2022-11-20T03:33:58;97694.94;;;17.88;64.02
55418;BME280;41287;47.554;7.844;2022-11-20T03:36:24;97696.91;;;17.88;64.00
55418;BME280;41287;47.554;7.844;2022-11-20T03:38:49;97696.91;;;17.88;63.93
55418;BME280;41287;47.554;7.844;2022-11-20T03:41:20;97697.66;;;17.88;64.02
55418;BME280;41287;47.554;7.844;2022-11-20T03:43:55;97701.53;;;17.87;64.20
55418;BME280;41287;47.554;7.844;2022-11-20T03:46:21;97700.38;;;17.88;63.98
55418;BME280;41287;47.554;7.844;2022-11-20T03:48:47;97696.91;;;17.88;64.09
55418;BME280;41287;47.554;7.844;2022-11-20T03:51:21;97708.50;;;17.88;64.13
55418;BME280;41287;47.554;7.844;2022-11-20T03:53:48;97703.06;;;17.88;63.75
55418;BME280;41287;47.554;7.844;2022-11-20T03:56:15;97700.38;;;17.88;64.16
55418;BME280;41287;47.554;7.844;2022-11-20T03:58:40;97704.22;;;17.87;64.05
55418;BME280;41287;47.554;7.844;2022-11-20T04:01:14;97704.22;;;17.87;64.06
55418;BME280;41287;47.554;7.844;2022-11-20T04:03:41;97709.28;;;17.89;64.16
55418;BME280;41287;47.554;7.844;2022-11-20T04:06:09;97707.72;;;17.88;63.92
55418;BME280;41287;47.554;7.844;2022-11-20T04:08:36;97710.44;;;17.88;64.09
55418;BME280;41287;47.554;7.844;2022-11-20T04:11:12;97714.28;;;17.87;64.06
55418;BME280;41287;47.554;7.844;2022-11-20T04:13:39;97721.28;;;17.88;64.13
55418;BME280;41287;47.554;7.844;2022-11-20T04:16:06;97713.16;;;17.88;64.16
55418;BME280;41287;47.554;7.844;2022-11-20T04:18:32;97712.38;;;17.87;64.15
55418;BME280;41287;47.554;7.844;2022-11-20T04:20:58;97703.44;;;17.87;63.96
55418;BME280;41287;47.554;7.844;2022-11-20T04:23:24;97727.84;;;17.87;64.14
55418;BME280;41287;47.554;7.844;2022-11-20T04:25:49;97725.13;;;17.87;63.87
55418;BME280;41287;47.554;7.844;2022-11-20T04:28:16;97730.19;;;17.88;64.16
55418;BME280;41287;47.554;7.844;2022-11-20T04:30:42;97726.72;;;17.88;64.02
55418;BME280;41287;47.554;7.844;2022-11-20T04:33:07;97727.03;;;17.86;64.15
55418;BME280;41287;47.554;7.844;2022-11-20T04:35:36;97729.41;;;17.88;63.93
55418;BME280;41287;47.554;7.844;2022-11-20T04:38:02;97727.84;;;17.87;63.89
55418;BME280;41287;47.554;7.844;2022-11-20T04:40:27;97737.53;;;17.88;63.96
55418;BME280;41287;47.554;7.844;2022-11-20T04:42:53;97737.19;;;17.89;64.12
55418;BME280;41287;47.554;7.844;2022-11-20T04:45:19;97733.25;;;17.87;64.17
55418;BME280;41287;47.554;7.844;2022-11-20T04:47:44;97726.72;;;17.88;64.10
55418;BME280;41287;47.554;7.844;2022-11-20T04:50:09;97725.91;;;17.87;64.18
55418;BME280;41287;47.554;7.844;2022-11-20T04:52:35;97723.19;;;17.87;63.93
55418;BME280;41287;47.554;7.844;2022-11-20T04:55:00;97722.06;;;17.88;64.10
55418;BME280;41287;47.554;7.844;2022-11-20T04:57:25;97728.63;;;17.87;64.07
55418;BME280;41287;47.554;7.844;2022-11-20T04:59:51;97727.84;;;17.87;64.04
55418;BME280;41287;47.554;7.844;2022-11-20T05:02:16;97721.63;;;17.86;64.01
55418;BME280;41287;47.554;7.844;2022-11-20T05:04:42;97725.91;;;17.87;63.95
55418;BME280;41287;47.554;7.844;2022-11-20T05:07:07;97720.50;;;17.87;63.94
55418;BME280;41287;47.554;7.844;2022-11-20T05:09:34;97719.69;;;17.87;64.06
55418;BME280;41287;47.554;7.844;2022-11-20T05:11:59;97718.56;;;17.88;63.91
55418;BME280;41287;47.554;7.844;2022-11-20T05:14:25;97717.78;;;17.87;63.91
55418;BME280;41287;47.554;7.844;2022-11-20T05:16:50;97711.56;;;17.87;64.06
55418;BME280;41287;47.554;7.844;2022-11-20T05:19:16;97718.91;;;17.86;64.08
55418;BME280;41287;47.554;7.844;2022-11-20T05:21:41;97717.78;;;17.87;64.02
55418;BME280;41287;47.554;7.844;2022-11-20T05:24:06;97714.28;;;17.87;63.98
55418;BME280;41287;47.554;7.844;2022-11-20T05:26:32;97714.28;;;17.87;64.16
55418;BME280;41287;47.554;7.844;2022-11-20T05:28:57;97716.19;;;17.86;64.11
55418;BME280;41287;47.554;7.844;2022-11-20T05:31:24;97716.19;;;17.86;63.94
55418;BME280;41287;47.554;7.844;2022-11-20T05:33:50;97719.69;;;17.87;64.04
55418;BME280;41287;47.554;7.844;2022-11-20T05:36:16;97722.41;;;17.87;64.02
55418;BME280;41287;47.554;7.844;2022-11-20T05:38:42;97721.63;;;17.86;64.18
55418;BME280;41287;47.554;7.844;2022-11-20T05:41:13;97720.03;;;17.85;63.91
55418;BME280;41287;47.554;7.844;2022-11-20T05:43:41;97717.31;;;17.85;63.92
55418;BME280;41287;47.554;7.844;2022-11-20T05:46:08;97724.31;;;17.86;64.07
55418;BME280;41287;47.554;7.844;2022-11-20T05:48:36;97727.84;;;17.87;64.04
55418;BME280;41287;47.554;7.844;2022-11-20T05:51:05;97730.53;;;17.87;64.21
55418;BME280;41287;47.554;7.844;2022-11-20T05:53:33;97727.03;;;17.86;64.14
55418;BME280;41287;47.554;7.844;2022-11-20T05:56:07;97723.88;;;17.84;64.18
55418;BME280;41287;47.554;7.844;2022-11-20T05:58:33;97730.53;;;17.87;63.98
55418;BME280;41287;47.554;7.844;2022-11-20T06:01:07;97719.25;;;17.85;64.07
55418;BME280;41287;47.554;7.844;2022-11-20T06:03:32;97720.81;;;17.86;64.14
55418;BME280;41287;47.554;7.844;2022-11-20T06:06:00;97724.31;;;17.86;64.22
55418;BME280;41287;47.554;7.844;2022-11-20T06:08:26;97718.91;;;17.86;64.38
55418;BME280;41287;47.554;7.844;2022-11-20T06:10:51;97724.31;;;17.86;64.34
55418;BME280;41287;47.554;7.844;2022-11-20T06:13:17;97728.94;;;17.86;64.31
55418;BME280;41287;47.554;7.844;2022-11-20T06:15:42;97729.75;;;17.86;64.13
55418;BME280;41287;47.554;7.844;2022-11-20T06:18:12;97733.25;;;17.87;64.47
55418;BME280;41287;47.554;7.844;2022-11-20T06:20:38;97733.25;;;17.87;64.49
55418;BME280;41287;47.554;7.844;2022-11-20T06:23:03;97727.84;;;17.87;64.47
55418;BME280;41287;47.554;7.844;2022-11-20T06:25:28;97731.66;;;17.86;64.33
55418;BME280;41287;47.554;7.844;2022-11-20T06:27:53;97728.63;;;17.87;64.51
55418;BME280;41287;47.554;7.844;2022-11-20T06:30:19;97726.25;;;17.86;64.32
55418;BME280;41287;47.554;7.844;2022-11-20T06:32:44;97729.75;;;17.86;64.53
55418;BME280;41287;47.554;7.844;2022-11-20T06:35:12;97726.25;;;17.86;64.41
55418;BME280;41287;47.554;7.844;2022-11-20T06:37:39;97728.94;;;17.86;64.41
55418;BME280;41287;47.554;7.844;2022-11-20T06:40:04;97720.03;;;17.85;64.34
55418;BME280;41287;47.554;7.844;2022-11-20T06:42:30;97721.94;;;17.85;64.40
55418;BME280;41287;47.554;7.844;2022-11-20T06:44:55;97728.94;;;17.86;64.29
55418;BME280;41287;47.554;7.844;2022-11-20T06:47:21;97729.75;;;17.86;64.09
55418;BME280;41287;47.554;7.844;2022-11-20T06:49:46;97737.09;;;17.86;64.30
55418;BME280;41287;47.554;7.844;2022-11-20T06:52:11;97731.66;;;17.86;64.31
55418;BME280;41287;47.554;7.844;2022-11-20T06:54:36;97734.38;;;17.86;64.15
55418;BME280;41287;47.554;7.844;2022-11-20T06:57:02;97739.00;;;17.85;64.27
55418;BME280;41287;47.554;7.844;2022-11-20T06:59:27;97747.94;;;17.86;64.23
55418;BME280;41287;47.554;7.844;2022-11-20T07:01:53;97742.50;;;17.86;64.27
55418;BME280;41287;47.554;7.844;2022-11-20T07:04:18;97737.09;;;17.86;63.71
55418;BME280;41287;47.554;7.844;2022-11-20T07:06:43;97732.00;;;17.84;63.57
55418;BME280;41287;47.554;7.844;2022-11-20T07:09:09;97737.41;;;17.84;62.66
55418;BME280;41287;47.554;7.844;2022-11-20T07:11:34;97729.75;;;17.86;62.74
55418;BME280;41287;47.554;7.844;2022-11-20T07:13:59;97744.41;;;17.85;62.85
55418;BME280;41287;47.554;7.844;2022-11-20T07:16:25;97744.09;;;17.87;63.11
55418;BME280;41287;47.554;7.844;2022-11-20T07:18:58;97742.19;;;17.87;63.32
55418;BME280;41287;47.554;7.844;2022-11-20T07:21:24;97747.59;;;17.87;63.32
55418;BME280;41287;47.554;7.844;2022-11-20T07:23:49;97741.38;;;17.87;63.34
55418;BME280;41287;47.554;7.844;2022-11-20T07:26:14;97751.88;;;17.88;63.32
55418;BME280;41287;47.554;7.844;2022-11-20T07:28:40;97748.03;;;17.89;63.68
55418;BME280;41287;47.554;7.844;2022-11-20T07:31:08;97744.53;;;17.89;63.55
55418;BME280;41287;47.554;7.844;2022-11-20T07:33:34;97755.03;;;17.90;63.50
55418;BME280;41287;47.554;7.844;2022-11-20T07:35:59;97750.75;;;17.89;63.74
55418;BME280;41287;47.554;7.844;2022-11-20T07:38:25;97750.75;;;17.89;63.48
55418;BME280;41287;47.554;7.844;2022-11-20T07:40:54;97755.03;;;17.90;63.65
55418;BME280;41287;47.554;7.844;2022-11-20T07:43:21;97760.47;;;17.90;63.63
55418;BME280;41287;47.554;7.844;2022-11-20T07:45:46;97761.25;;;17.91;63.74
55418;BME280;41287;47.554;7.844;2022-11-20T07:48:12;97762.03;;;17.91;63.89
55418;BME280;41287;47.554;7.844;2022-11-20T07:50:37;97763.97;;;17.91;63.59
55418;BME280;41287;47.554;7.844;2022-11-20T07:53:04;97755.03;;;17.90;63.64
55418;BME280;41287;47.554;7.844;2022-11-20T07:55:30;97759.66;;;17.90;63.85
55418;BME280;41287;47.554;7.844;2022-11-20T07:57:56;97765.09;;;17.90;63.81
55418;BME280;41287;47.554;7.844;2022-11-20T08:00:22;97763.97;;;17.91;63.67
55418;BME280;41287;47.554;7.844;2022-11-20T08:02:47;97761.25;;;17.91;63.79
55418;BME280;41287;47.554;7.844;2022-11-20T08:05:14;97762.03;;;17.91;63.87
55418;BME280;41287;47.554;7.844;2022-11-20T08:07:42;97762.84;;;17.92;63.89
55418;BME280;41287;47.554;7.844;2022-11-20T08:10:10;97769.84;;;17.93;63.40
55418;BME280;41287;47.554;7.844;2022-11-20T08:12:48;97763.63;;;17.92;63.83
55418;BME280;41287;47.554;7.844;2022-11-20T08:15:33;97769.06;;;17.92;63.87
55418;BME280;41287;47.554;7.844;2022-11-20T08:18:01;97768.59;;;17.90;63.79
55418;BME280;41287;47.554;7.844;2022-11-20T08:20:27;97769.38;;;17.91;63.75
55418;BME280;41287;47.554;7.844;2022-11-20T08:22:57;97772.09;;;17.91;63.83
55418;BME280;41287;47.554;7.844;2022-11-20T08:25:22;97783.72;;;17.91;63.79
55418;BME280;41287;47.554;7.844;2022-11-20T08:27:48;97777.50;;;17.91;63.74
55418;BME280;41287;47.554;7.844;2022-11-20T08:30:15;97782.59;;;17.92;63.82
55418;BME280;41287;47.554;7.844;2022-11-20T08:32:41;97782.59;;;17.92;63.80
55418;BME280;41287;47.554;7.844;2022-11-20T08:35:06;97778.31;;;17.91;63.91
55418;BME280;41287;47.554;7.844;2022-11-20T08:37:32;97781.81;;;17.92;63.68
55418;BME280;41287;47.554;7.844;2022-11-20T08:39:57;97782.13;;;17.90;63.96
55418;BME280;41287;47.554;7.844;2022-11-20T08:42:25;97785.66;;;17.91;63.88
55418;BME280;41287;47.554;7.844;2022-11-20T08:44:52;97793.44;;;17.92;64.12
55418;BME280;41287;47.554;7.844;2022-11-20T08:47:18;97789.94;;;17.92;63.97
55418;BME280;41287;47.554;7.844;2022-11-20T08:49:43;97793.44;;;17.92;64.10
55418;BME280;41287;47.554;7.844;2022-11-20T08:52:08;97793.44;;;17.92;63.57
55418;BME280;41287;47.554;7.844;2022-11-20T08:54:34;97794.56;;;17.91;63.90
55418;BME280;41287;47.554;7.844;2022-11-20T08:56:59;97794.56;;;17.91;63.74
55418;BME280;41287;47.554;7.844;2022-11-20T08:59:24;97797.28;;;17.91;63.77
55418;BME280;41287;47.554;7.844;2022-11-20T09:01:50;97796.94;;;17.93;63.86
55418;BME280;41287;47.554;7.844;2022-11-20T09:04:15;97805.09;;;17.93;63.86
55418;BME280;41287;47.554;7.844;2022-11-20T09:06:40;97800.78;;;17.92;63.80
55418;BME280;41287;47.554;7.844;2022-11-20T09:09:06;97805.09;;;17.93;63.77
55418;BME280;41287;47.554;7.844;2022-11-20T09:11:31;97803.16;;;17.93;63.73
55418;BME280;41287;47.554;7.844;2022-11-20T09:13:57;97805.09;;;17.93;63.72
55418;BME280;41287;47.554;7.844;2022-11-20T09:16:22;97805.88;;;17.93;63.48
55418;BME280;41287;47.554;7.844;2022-11-20T09:18:49;97810.50;;;17.93;63.80
55418;BME280;41287;47.554;7.844;2022-11-20T09:21:15;97812.88;;;17.94;63.78
55418;BME280;41287;47.554;7.844;2022-11-20T09:23:40;97808.59;;;17.93;63.72
55418;BME280;41287;47.554;7.844;2022-11-20T09:26:09;97805.09;;;17.93;63.82
55418;BME280;41287;47.554;7.844;2022-11-20T09:28:34;97808.91;;;17.92;63.67
55418;BME280;41287;47.554;7.844;2022-11-20T09:30:59;97805.88;;;17.93;63.87
55418;BME280;41287;47.554;7.844;2022-11-20T09:33:25;97813.22;;;17.93;63.91
55418;BME280;41287;47.554;7.844;2022-11-20T09:35:52;97816.72;;;17.93;63.85
55418;BME280;41287;47.554;7.844;2022-11-20T09:38:17;97815.94;;;17.93;63.82
55418;BME280;41287;47.554;7.844;2022-11-20T09:46:27;97812.41;;;17.92;63.86
55418;BME280;41287;47.554;7.844;2022-11-20T09:51:41;97825.97;;;17.92;63.83
55418;BME280;41287;47.554;7.844;2022-11-20T09:54:21;97814.34;;;17.92;63.89
55418;BME280;41287;47.554;7.844;2022-11-20T09:57:00;97822.00;;;17.90;63.83
55418;BME280;41287;47.554;7.844;2022-11-20T09:59:36;97813.53;;;17.91;63.95
55418;BME280;41287;47.554;7.844;2022-11-20T10:02:25;97812.75;;;17.91;63.74
55418;BME280;41287;47.554;7.844;2022-11-20T10:07:23;97815.13;;;17.92;63.89
55418;BME280;41287;47.554;7.844;2022-11-20T10:09:54;97824.38;;;17.91;64.04
55418;BME280;41287;47.554;7.844;2022-11-20T10:12:29;97816.25;;;17.91;63.89
55418;BME280;41287;47.554;7.844;2022-11-20T10:15:10;97820.56;;;17.92;63.94
55418;BME280;41287;47.554;7.844;2022-11-20T10:17:52;97822.81;;;17.90;63.82
55418;BME280;41287;47.554;7.844;2022-11-20T10:20:43;97832.84;;;17.90;64.00
55418;BME280;41287;47.554;7.844;2022-11-20T10:25:44;97824.38;;;17.91;63.71
55418;BME280;41287;47.554;7.844;2022-11-20T10:28:21;97816.72;;;17.93;63.93
55418;BME280;41287;47.554;7.844;2022-11-20T10:30:59;97808.13;;;17.91;63.95
55418;BME280;41287;47.554;7.844;2022-11-20T10:33:26;97807.81;;;17.93;63.72
55418;BME280;41287;47.554;7.844;2022-11-20T10:35:59;97812.75;;;17.91;63.90
55418;BME280;41287;47.554;7.844;2022-11-20T10:38:39;97804.28;;;17.92;63.93
55418;BME280;41287;47.554;7.844;2022-11-20T10:41:16;97803.50;;;17.92;63.83
55418;BME280;41287;47.554;7.844;2022-11-20T10:43:56;97803.50;;;17.92;63.86
55418;BME280;41287;47.554;7.844;2022-11-20T10:46:29;97806.69;;;17.94;63.72
55418;BME280;41287;47.554;7.844;2022-11-20T10:48:57;97803.16;;;17.93;63.85
55418;BME280;41287;47.554;7.844;2022-11-20T10:51:47;97800.31;;;17.90;63.99
55418;BME280;41287;47.554;7.844;2022-11-20T10:57:02;97795.03;;;17.93;63.92
55418;BME280;41287;47.554;7.844;2022-11-20T10:59:51;97786.78;;;17.90;63.98
55418;BME280;41287;47.554;7.844;2022-11-20T11:02:23;97786.13;;;17.93;63.91
55418;BME280;41287;47.554;7.844;2022-11-20T11:04:51;97788.03;;;17.92;63.81
55418;BME280;41287;47.554;7.844;2022-11-20T11:07:21;97778.31;;;17.91;63.77
55418;BME280;41287;47.554;7.844;2022-11-20T11:09:52;97772.56;;;17.93;63.71
55418;BME280;41287;47.554;7.844;2022-11-20T11:12:19;97774.16;;;17.94;63.69
55418;BME280;41287;47.554;7.844;2022-11-20T11:14:51;97773.69;;;17.92;63.79
55418;BME280;41287;47.554;7.844;2022-11-20T11:17:25;97769.38;;;17.91;63.83
55418;BME280;41287;47.554;7.844;2022-11-20T11:22:44;97749.63;;;17.90;63.90
55418;BME280;41287;47.554;7.844;2022-11-20T11:25:26;97752.31;;;17.90;64.00
55418;BME280;41287;47.554;7.844;2022-11-20T11:27:54;97745.44;;;17.93;63.88
55418;BME280;41287;47.554;7.844;2022-11-20T11:30:22;97742.75;;;17.93;64.00
55418;BME280;41287;47.554;7.844;2022-11-20T11:32:48;97736.84;;;17.91;63.98
55418;BME280;41287;47.554;7.844;2022-11-20T11:35:25;97736.06;;;17.90;63.90
55418;BME280;41287;47.554;7.844;2022-11-20T11:38:12;97730.31;;;17.92;63.89
55418;BME280;41287;47.554;7.844;2022-11-20T11:40:41;97731.91;;;17.93;63.88
55418;BME280;41287;47.554;7.844;2022-11-20T11:43:26;97727.94;;;17.90;63.96
55418;BME280;41287;47.554;7.844;2022-11-20T11:46:31;97719.81;;;17.90;63.87
55418;BME280;41287;47.554;7.844;2022-11-20T11:49:01;97724.56;;;17.93;63.66
55418;BME280;41287;47.554;7.844;2022-11-20T11:51:45;97719.81;;;17.90;64.02
55418;BME280;41287;47.554;7.844;2022-11-20T11:54:43;97717.09;;;17.90;63.86
55418;BME280;41287;47.554;7.844;2022-11-20T11:57:24;97703.53;;;17.90;63.83
55418;BME280;41287;47.554;7.844;2022-11-20T12:00:00;97692.69;;;17.90;63.87
55418;BME280;41287;47.554;7.844;2022-11-20T12:11:30;97667.84;;;17.88;64.13
55418;BME280;41287;47.554;7.844;2022-11-20T12:16:26;97666.38;;;17.91;63.97
55418;BME280;41287;47.554;7.844;2022-11-20T12:18:52;97662.88;;;17.90;63.95
55418;BME280;41287;47.554;7.844;2022-11-20T12:21:21;97660.16;;;17.90;63.90
55418;BME280;41287;47.554;7.844;2022-11-20T12:26:55;97660.16;;;17.90;63.83
55418;BME280;41287;47.554;7.844;2022-11-20T12:39:49;97660.63;;;17.92;64.08
55418;BME280;41287;47.554;7.844;2022-11-20T12:42:27;97666.06;;;17.92;63.98
55418;BME280;41287;47.554;7.844;2022-11-20T12:50:52;97665.59;;;17.90;64.07
55418;BME280;41287;47.554;7.844;2022-11-20T12:54:01;97665.13;;;17.88;64.07
55418;BME280;41287;47.554;7.844;2022-11-20T12:59:41;97659.72;;;17.88;63.07
55418;BME280;41287;47.554;7.844;2022-11-20T13:04:49;97653.16;;;17.89;62.95
55418;BME280;41287;47.554;7.844;2022-11-20T13:07:23;97657.47;;;17.90;62.96
55418;BME280;41287;47.554;7.844;2022-11-20T13:09:50;97660.16;;;17.90;62.92
55418;BME280;41287;47.554;7.844;2022-11-20T13:12:17;97660.16;;;17.90;62.90
55418;BME280;41287;47.554;7.844;2022-11-20T13:17:36;97638.50;;;17.90;63.00
55418;BME280;41287;47.554;7.844;2022-11-20T13:20:06;97637.38;;;17.91;63.12
55418;BME280;41287;47.554;7.844;2022-11-20T13:22:49;97631.47;;;17.89;63.02
55418;BME280;41287;47.554;7.844;2022-11-20T13:27:53;97628.44;;;17.91;62.97
55418;BME280;41287;47.554;7.844;2022-11-20T13:30:24;97621.44;;;17.90;62.91
55418;BME280;41287;47.554;7.844;2022-11-20T13:32:58;97620.31;;;17.91;63.12
55418;BME280;41287;47.554;7.844;2022-11-20T13:35:27;97614.88;;;17.91;63.16
55418;BME280;41287;47.554;7.844;2022-11-20T13:38:13;97607.44;;;17.88;63.15
55418;BME280;41287;47.554;7.844;2022-11-20T13:40:56;97599.31;;;17.88;63.11
55418;BME280;41287;47.554;7.844;2022-11-20T13:43:40;97600.09;;;17.88;63.14
55418;BME280;41287;47.554;7.844;2022-11-20T13:46:08;97604.84;;;17.91;63.29
55418;BME280;41287;47.554;7.844;2022-11-20T13:48:39;97602.47;;;17.90;63.21
55418;BME280;41287;47.554;7.844;2022-11-20T13:51:34;97596.59;;;17.88;63.19
55418;BME280;41287;47.554;7.844;2022-11-20T13:54:07;97594.31;;;17.90;63.27
55418;BME280;41287;47.554;7.844;2022-11-20T13:56:59;97600.09;;;17.88;63.25
55418;BME280;41287;47.554;7.844;2022-11-20T14:02:22;97590.50;;;17.91;63.51
55418;BME280;41287;47.554;7.844;2022-11-20T14:04:50;97587.00;;;17.90;63.34
55418;BME280;41287;47.554;7.844;2022-11-20T14:07:18;97583.16;;;17.91;63.39
55418;BME280;41287;47.554;7.844;2022-11-20T14:09:55;97588.13;;;17.89;63.30
55418;BME280;41287;47.554;7.844;2022-11-20T14:12:30;97585.06;;;17.91;63.38
55418;BME280;41287;47.554;7.844;2022-11-20T14:14:56;97580.44;;;17.91;63.36
55418;BME280;41287;47.554;7.844;2022-11-20T14:19:55;97570.72;;;17.90;63.47
55418;BME280;41287;47.554;7.844;2022-11-20T14:22:24;97567.22;;;17.90;63.16